createdAt,value
2022-12-11T00:01:14.142Z,1.20
2022-12-11T00:03:41.774Z,1.09
2022-12-11T00:06:10.658Z,0.94
2022-12-11T00:08:37.967Z,1.16
2022-12-11T00:11:05.948Z,0.99
2022-12-11T00:13:32.775Z,0.97
2022-12-11T00:15:59.794Z,1.10
2022-12-11T00:18:26.747Z,0.99
2022-12-11T00:20:53.625Z,0.99
2022-12-11T00:23:20.305Z,0.91
2022-12-11T00:25:47.922Z,0.85
2022-12-11T00:28:17.031Z,0.67
2022-12-11T00:30:43.981Z,0.98
2022-12-11T00:33:11.702Z,1.00
2022-12-11T00:35:43.850Z,0.94
2022-12-11T00:38:18.075Z,0.90
2022-12-11T00:40:45.103Z,0.94
2022-12-11T00:43:12.568Z,1.16
2022-12-11T00:45:42.359Z,0.81
2022-12-11T00:48:10.156Z,0.96
2022-12-11T00:50:37.230Z,0.85
2022-12-11T00:53:05.082Z,1.04
2022-12-11T00:55:32.317Z,0.95
2022-12-11T00:57:59.162Z,0.74
2022-12-11T01:00:25.852Z,0.93
2022-12-11T01:02:52.771Z,1.05
2022-12-11T01:05:19.698Z,0.89
2022-12-11T01:07:46.597Z,1.05
2022-12-11T01:10:26.258Z,1.24
2022-12-11T01:13:04.666Z,1.07
2022-12-11T01:15:38.675Z,1.23
2022-12-11T01:18:08.160Z,1.01
2022-12-11T01:20:35.211Z,1.34
2022-12-11T01:23:02.136Z,1.16
2022-12-11T01:25:29.382Z,1.11
2022-12-11T01:27:56.537Z,1.18
2022-12-11T01:30:25.310Z,1.30
2022-12-11T01:32:52.575Z,0.80
2022-12-11T01:35:20.080Z,1.15
2022-12-11T01:37:47.202Z,1.27
2022-12-11T01:40:16.188Z,1.11
2022-12-11T01:42:43.178Z,1.07
2022-12-11T01:45:16.037Z,1.00
2022-12-11T01:47:44.060Z,1.30
2022-12-11T01:50:11.782Z,1.19
2022-12-11T01:52:38.701Z,1.06
2022-12-11T01:55:06.237Z,0.97
2022-12-11T01:57:33.100Z,1.02
2022-12-11T01:59:59.809Z,0.97
2022-12-11T02:02:28.790Z,0.92
2022-12-11T02:04:55.705Z,0.84
2022-12-11T02:07:22.409Z,0.93
2022-12-11T02:09:49.659Z,0.96
2022-12-11T02:12:25.614Z,0.98
2022-12-11T02:15:17.727Z,1.16
2022-12-11T02:17:49.103Z,0.79
2022-12-11T02:20:29.670Z,0.95
2022-12-11T02:23:18.923Z,0.95
2022-12-11T02:26:15.653Z,0.99
2022-12-11T02:28:55.052Z,0.89
2022-12-11T02:31:37.281Z,0.84
2022-12-11T02:34:22.005Z,0.97
2022-12-11T02:36:56.091Z,0.85
2022-12-11T02:39:25.504Z,0.95
2022-12-11T02:41:52.385Z,1.08
2022-12-11T02:44:25.169Z,0.89
2022-12-11T02:46:52.798Z,0.98
2022-12-11T02:49:21.328Z,1.02
2022-12-11T02:51:48.316Z,1.10
2022-12-11T02:54:21.535Z,0.93
2022-12-11T02:56:56.145Z,1.03
2022-12-11T02:59:30.432Z,0.80
2022-12-11T03:01:57.360Z,0.86
2022-12-11T03:04:25.121Z,0.98
2022-12-11T03:06:55.260Z,0.86
2022-12-11T03:09:22.405Z,0.86
2022-12-11T03:11:49.278Z,0.86
2022-12-11T03:14:16.046Z,0.95
2022-12-11T03:16:55.362Z,1.13
2022-12-11T03:19:35.868Z,0.89
2022-12-11T03:22:11.880Z,0.79
2022-12-11T03:24:45.931Z,0.90
2022-12-11T03:27:42.185Z,1.05
2022-12-11T03:30:13.423Z,0.77
2022-12-11T03:33:04.755Z,0.92
2022-12-11T03:35:36.257Z,0.92
2022-12-11T03:38:07.225Z,0.82
2022-12-11T03:40:36.113Z,0.86
2022-12-11T03:43:03.498Z,0.99
2022-12-11T03:45:30.732Z,1.01
2022-12-11T03:48:00.076Z,0.99
2022-12-11T03:50:29.250Z,0.92
2022-12-11T03:52:56.316Z,0.93
2022-12-11T03:55:23.588Z,0.91
2022-12-11T03:57:50.653Z,0.85
2022-12-11T04:00:19.848Z,0.97
2022-12-11T04:03:11.359Z,1.08
2022-12-11T04:05:41.940Z,1.07
2022-12-11T04:08:08.939Z,1.03
2022-12-11T04:10:35.934Z,0.98
2022-12-11T04:13:02.839Z,1.10
2022-12-11T04:15:29.533Z,1.16
2022-12-11T04:18:14.966Z,0.99
2022-12-11T04:21:00.607Z,1.02
2022-12-11T04:23:46.166Z,1.05
2022-12-11T04:26:15.765Z,0.99
2022-12-11T04:28:43.664Z,1.12
2022-12-11T04:31:15.561Z,0.95
2022-12-11T04:33:42.780Z,1.14
2022-12-11T04:36:11.054Z,1.14
2022-12-11T04:38:38.150Z,1.14
2022-12-11T04:41:12.329Z,1.25
2022-12-11T04:43:39.260Z,1.10
2022-12-11T04:46:09.119Z,1.02
2022-12-11T04:48:36.488Z,0.92
2022-12-11T04:51:04.056Z,0.97
2022-12-11T04:53:31.230Z,0.96
2022-12-11T04:55:58.208Z,1.06
2022-12-11T04:58:26.002Z,1.05
2022-12-11T05:00:53.284Z,1.07
2022-12-11T05:03:20.765Z,0.85
2022-12-11T05:05:49.520Z,1.05
2022-12-11T05:08:20.179Z,0.98
2022-12-11T05:10:59.362Z,0.95
2022-12-11T05:13:27.551Z,0.95
2022-12-11T05:15:54.910Z,0.92
2022-12-11T05:18:22.016Z,0.88
2022-12-11T05:21:00.457Z,0.95
2022-12-11T05:23:27.474Z,0.91
2022-12-11T05:25:59.925Z,0.80
2022-12-11T05:28:28.850Z,0.68
2022-12-11T05:31:00.908Z,0.75
2022-12-11T05:33:28.342Z,0.68
2022-12-11T05:35:55.330Z,0.62
2022-12-11T05:38:22.834Z,0.88
2022-12-11T05:41:00.938Z,0.93
2022-12-11T05:43:29.066Z,0.87
2022-12-11T05:45:56.777Z,0.61
2022-12-11T05:48:23.748Z,0.89
2022-12-11T05:51:01.229Z,0.79
2022-12-11T05:53:28.152Z,0.92
2022-12-11T05:55:55.160Z,0.67
2022-12-11T05:58:22.116Z,0.64
2022-12-11T06:00:48.989Z,0.80
2022-12-11T06:03:15.730Z,0.94
2022-12-11T06:05:43.242Z,0.61
2022-12-11T06:08:10.284Z,0.79
2022-12-11T06:10:37.404Z,0.57
2022-12-11T06:13:04.587Z,0.40
2022-12-11T06:15:31.456Z,0.46
2022-12-11T06:17:58.112Z,0.43
2022-12-11T06:20:24.999Z,0.53
2022-12-11T06:22:51.647Z,0.38
2022-12-11T06:25:18.598Z,0.37
2022-12-11T06:27:45.467Z,0.40
2022-12-11T06:30:12.361Z,0.43
2022-12-11T06:32:39.219Z,0.18
2022-12-11T06:35:06.156Z,0.34
2022-12-11T06:37:33.006Z,0.45
2022-12-11T06:39:59.727Z,0.39
2022-12-11T06:42:26.565Z,0.32
2022-12-11T06:44:53.210Z,0.39
2022-12-11T06:47:20.088Z,0.40
2022-12-11T06:49:46.736Z,0.42
2022-12-11T06:52:18.241Z,0.43
2022-12-11T06:54:45.558Z,0.58
2022-12-11T06:57:12.429Z,0.35
2022-12-11T06:59:39.091Z,0.41
2022-12-11T07:02:05.992Z,0.59
2022-12-11T07:04:33.416Z,0.57
2022-12-11T07:07:00.252Z,0.59
2022-12-11T07:09:26.929Z,0.57
2022-12-11T07:11:53.859Z,0.57
2022-12-11T07:14:20.785Z,0.68
2022-12-11T07:16:47.735Z,0.46
2022-12-11T07:19:14.650Z,0.57
2022-12-11T07:21:41.334Z,0.60
2022-12-11T07:24:08.368Z,0.57
2022-12-11T07:26:35.365Z,0.63
2022-12-11T07:29:02.231Z,0.55
2022-12-11T07:31:29.577Z,0.53
2022-12-11T07:33:58.818Z,0.34
2022-12-11T07:36:26.422Z,0.67
2022-12-11T07:38:53.384Z,0.57
2022-12-11T07:41:20.992Z,0.70
2022-12-11T07:43:48.040Z,0.55
2022-12-11T07:46:17.666Z,0.58
2022-12-11T07:48:46.243Z,0.70
2022-12-11T07:51:23.031Z,0.44
2022-12-11T07:53:51.244Z,0.48
2022-12-11T07:56:19.465Z,0.37
2022-12-11T07:58:47.063Z,0.45
2022-12-11T08:01:29.149Z,0.47
2022-12-11T08:03:56.978Z,0.60
2022-12-11T08:06:29.547Z,0.54
2022-12-11T08:08:57.493Z,0.50
2022-12-11T08:11:25.118Z,0.44
2022-12-11T08:13:52.218Z,0.51
2022-12-11T08:16:19.841Z,0.55
2022-12-11T08:18:47.859Z,0.48
2022-12-11T08:21:17.533Z,0.48
2022-12-11T08:23:44.922Z,0.74
2022-12-11T08:26:18.500Z,0.50
2022-12-11T08:28:45.350Z,0.65
2022-12-11T08:31:12.520Z,0.58
2022-12-11T08:33:40.576Z,0.75
2022-12-11T08:36:09.802Z,0.69
2022-12-11T08:38:37.092Z,0.90
2022-12-11T08:41:18.380Z,0.70
2022-12-11T08:43:45.265Z,0.59
2022-12-11T08:46:12.256Z,0.81
2022-12-11T08:48:40.466Z,0.74
2022-12-11T08:51:09.532Z,0.77
2022-12-11T08:53:36.580Z,0.49
2022-12-11T08:56:05.024Z,0.42
2022-12-11T08:58:31.898Z,0.59
2022-12-11T09:00:58.602Z,0.63
2022-12-11T09:03:25.652Z,0.52
2022-12-11T09:05:52.555Z,0.51
2022-12-11T09:08:19.454Z,0.67
2022-12-11T09:10:46.380Z,0.63
2022-12-11T09:13:13.140Z,0.67
2022-12-11T09:15:43.034Z,0.55
2022-12-11T09:18:09.877Z,0.52
2022-12-11T09:20:36.804Z,0.58
2022-12-11T09:23:03.739Z,0.50
2022-12-11T09:25:30.601Z,0.54
2022-12-11T09:27:57.317Z,0.37
2022-12-11T09:30:24.176Z,0.39
2022-12-11T09:32:50.816Z,0.60
2022-12-11T09:35:17.812Z,0.46
2022-12-11T09:37:44.717Z,0.46
2022-12-11T09:40:12.576Z,0.65
2022-12-11T09:42:55.474Z,0.56
2022-12-11T09:45:22.489Z,0.62
2022-12-11T09:47:52.967Z,0.76
2022-12-11T09:50:32.945Z,0.74
2022-12-11T09:53:18.134Z,0.65
2022-12-11T09:56:03.208Z,0.73
2022-12-11T09:58:39.364Z,0.91
2022-12-11T10:01:19.048Z,1.21
2022-12-11T10:03:56.156Z,1.14
2022-12-11T10:06:22.949Z,0.89
2022-12-11T10:09:08.259Z,1.04
2022-12-11T10:12:05.579Z,1.26
2022-12-11T10:15:00.339Z,1.92
2022-12-11T10:17:32.823Z,1.23
2022-12-11T10:20:22.555Z,0.96
2022-12-11T10:22:50.953Z,1.12
2022-12-11T10:25:40.565Z,1.18
2022-12-11T10:28:19.205Z,1.12
2022-12-11T10:31:17.394Z,1.29
2022-12-11T10:33:50.343Z,1.01
2022-12-11T10:36:21.402Z,1.26
2022-12-11T10:38:48.269Z,1.48
2022-12-11T10:41:17.900Z,1.60
2022-12-11T10:43:47.506Z,2.05
2022-12-11T10:46:21.790Z,1.78
2022-12-11T10:48:54.809Z,2.05
2022-12-11T10:51:24.822Z,1.85
2022-12-11T10:53:53.894Z,1.84
2022-12-11T10:56:28.737Z,1.99
2022-12-11T10:58:57.063Z,2.53
2022-12-11T11:01:26.201Z,2.70
2022-12-11T11:04:01.255Z,2.70
2022-12-11T11:06:28.126Z,2.31
2022-12-11T11:08:55.753Z,2.83
2022-12-11T11:11:35.196Z,2.96
2022-12-11T11:14:16.389Z,2.58
2022-12-11T11:16:45.740Z,2.59
2022-12-11T11:19:24.246Z,2.78
2022-12-11T11:21:55.812Z,2.79
2022-12-11T11:24:30.665Z,2.52
2022-12-11T11:27:13.100Z,2.59
2022-12-11T11:29:41.266Z,2.82
2022-12-11T11:32:42.587Z,2.63
2022-12-11T11:35:12.527Z,2.60
2022-12-11T11:37:42.540Z,2.46
2022-12-11T11:40:17.790Z,2.36
2022-12-11T11:42:53.088Z,2.19
2022-12-11T11:45:27.145Z,2.31
2022-12-11T11:48:13.650Z,2.48
2022-12-11T11:50:45.812Z,1.82
2022-12-11T11:53:19.751Z,2.26
2022-12-11T11:56:18.863Z,1.91
2022-12-11T11:58:59.398Z,2.22
2022-12-11T12:01:27.079Z,2.13
2022-12-11T12:03:54.370Z,1.90
2022-12-11T12:06:39.941Z,2.04
2022-12-11T12:09:13.233Z,1.81
2022-12-11T12:11:52.229Z,1.98
2022-12-11T12:14:50.995Z,2.44
2022-12-11T12:17:27.380Z,2.05
2022-12-11T12:20:31.554Z,1.73
2022-12-11T12:23:16.332Z,1.95
2022-12-11T12:25:49.772Z,2.12
2022-12-11T12:28:25.537Z,2.21
2022-12-11T12:31:10.726Z,2.10
2022-12-11T12:33:56.204Z,2.16
2022-12-11T12:36:46.893Z,1.87
2022-12-11T12:42:48.674Z,1.99
2022-12-11T12:45:21.583Z,2.27
2022-12-11T12:47:53.164Z,1.85
2022-12-11T12:50:23.315Z,1.58
2022-12-11T12:52:51.581Z,1.68
2022-12-11T12:55:27.428Z,1.33
2022-12-11T12:58:00.653Z,1.56
2022-12-11T13:00:31.864Z,1.93
2022-12-11T13:03:00.621Z,2.02
2022-12-11T13:05:38.292Z,1.71
2022-12-11T13:08:06.344Z,1.71
2022-12-11T13:10:34.165Z,1.73
2022-12-11T13:13:02.347Z,1.81
2022-12-11T13:15:40.820Z,1.72
2022-12-11T13:18:31.771Z,2.09
2022-12-11T13:20:58.662Z,2.10
2022-12-11T13:23:30.029Z,1.63
2022-12-11T13:26:02.381Z,1.82
2022-12-11T13:28:38.363Z,1.58
2022-12-11T13:31:14.005Z,1.48
2022-12-11T13:33:44.137Z,1.30
2022-12-11T13:36:16.687Z,1.44
2022-12-11T13:38:51.168Z,1.56
2022-12-11T13:41:18.800Z,1.18
2022-12-11T13:43:47.750Z,0.83
2022-12-11T13:46:16.288Z,0.97
2022-12-11T13:48:46.925Z,0.85
2022-12-11T13:51:17.468Z,0.94
2022-12-11T13:53:44.489Z,0.85
2022-12-11T13:56:20.266Z,1.14
2022-12-11T13:58:47.456Z,0.73
2022-12-11T14:01:23.342Z,0.82
2022-12-11T14:04:14.218Z,0.90
2022-12-11T14:06:41.198Z,1.00
2022-12-11T14:09:08.791Z,0.64
2022-12-11T14:11:38.627Z,0.57
2022-12-11T14:14:08.508Z,0.54
2022-12-11T14:16:35.488Z,0.54
2022-12-11T14:19:06.738Z,0.64
2022-12-11T14:21:33.936Z,0.46
2022-12-11T14:24:03.820Z,0.79
2022-12-11T14:26:34.351Z,0.75
2022-12-11T14:29:01.347Z,0.80
2022-12-11T14:31:37.469Z,0.58
2022-12-11T14:34:30.345Z,0.43
2022-12-11T14:36:58.234Z,0.63
2022-12-11T14:39:47.050Z,0.42
2022-12-11T14:42:25.365Z,0.47
2022-12-11T14:45:03.844Z,0.55
2022-12-11T14:47:34.746Z,0.36
2022-12-11T14:50:04.020Z,0.26
2022-12-11T14:52:34.282Z,0.11
2022-12-11T14:55:08.732Z,0.29
2022-12-11T14:57:36.351Z,0.47
2022-12-11T15:00:05.437Z,0.20
2022-12-11T15:02:34.757Z,0.44
2022-12-11T15:05:20.508Z,0.45
2022-12-11T15:07:56.951Z,0.89
2022-12-11T15:10:55.857Z,1.27
2022-12-11T15:13:25.811Z,1.69
2022-12-11T15:15:53.763Z,1.80
2022-12-11T15:18:34.657Z,1.82
2022-12-11T15:21:04.097Z,2.11
2022-12-11T15:23:31.125Z,2.39
2022-12-11T15:25:59.677Z,2.65
2022-12-11T15:28:44.762Z,1.84
2022-12-11T15:31:31.097Z,2.37
2022-12-11T15:33:58.627Z,2.27
2022-12-11T15:36:31.540Z,1.97
2022-12-11T15:38:58.691Z,2.08
2022-12-11T15:41:25.884Z,2.06
2022-12-11T15:43:58.309Z,1.99
2022-12-11T15:46:26.176Z,2.02
2022-12-11T15:48:53.171Z,1.79
2022-12-11T15:51:20.074Z,2.06
2022-12-11T15:53:46.783Z,2.16
2022-12-11T15:56:17.684Z,1.86
2022-12-11T15:58:45.458Z,2.46
2022-12-11T16:01:12.453Z,1.98
2022-12-11T16:03:39.412Z,1.59
2022-12-11T16:06:06.492Z,2.00
2022-12-11T16:08:33.718Z,2.21
2022-12-11T16:11:00.650Z,1.95
2022-12-11T16:13:27.303Z,1.32
2022-12-11T16:15:54.459Z,1.49
2022-12-11T16:18:23.402Z,1.43
2022-12-11T16:20:51.524Z,1.58
2022-12-11T16:23:18.851Z,1.49
2022-12-11T16:25:46.885Z,1.49
2022-12-11T16:28:15.680Z,1.72
2022-12-11T16:30:43.695Z,2.04
2022-12-11T16:33:13.223Z,1.62
2022-12-11T16:35:41.802Z,1.79
2022-12-11T16:38:10.200Z,1.86
2022-12-11T16:40:37.948Z,2.01
2022-12-11T16:43:05.626Z,2.38
2022-12-11T16:45:32.724Z,1.39
2022-12-11T16:48:03.377Z,1.52
2022-12-11T16:50:30.343Z,1.50
2022-12-11T16:52:57.511Z,2.20
2022-12-11T16:55:24.358Z,2.32
2022-12-11T16:57:51.049Z,2.02
2022-12-11T17:00:18.084Z,1.67
2022-12-11T17:02:45.034Z,1.54
2022-12-11T17:05:12.386Z,1.79
2022-12-11T17:07:40.478Z,1.78
2022-12-11T17:10:07.992Z,2.16
2022-12-11T17:12:35.139Z,1.41
2022-12-11T17:15:02.030Z,1.25
2022-12-11T17:17:28.723Z,1.48
2022-12-11T17:19:55.771Z,2.00
2022-12-11T17:22:22.875Z,1.73
2022-12-11T17:24:49.837Z,2.08
2022-12-11T17:27:16.728Z,1.80
2022-12-11T17:29:43.387Z,1.59
2022-12-11T17:32:10.274Z,1.53
2022-12-11T17:34:38.587Z,1.67
2022-12-11T17:37:06.242Z,1.10
2022-12-11T17:39:33.544Z,1.22
2022-12-11T17:42:00.627Z,0.69
2022-12-11T17:44:30.681Z,1.53
2022-12-11T17:46:58.502Z,1.55
2022-12-11T17:49:25.446Z,1.63
2022-12-11T17:51:53.409Z,1.81
2022-12-11T17:54:20.355Z,0.87
2022-12-11T17:56:47.337Z,1.02
2022-12-11T17:59:14.200Z,1.50
2022-12-11T18:01:40.905Z,1.29
2022-12-11T18:04:07.884Z,1.70
2022-12-11T18:06:34.826Z,1.57
2022-12-11T18:09:01.704Z,1.37
2022-12-11T18:11:28.383Z,1.62
2022-12-11T18:13:55.327Z,1.42
2022-12-11T18:16:28.029Z,1.36
2022-12-11T18:18:56.612Z,1.89
2022-12-11T18:21:26.197Z,0.55
2022-12-11T18:23:53.370Z,0.83
2022-12-11T18:26:20.695Z,1.41
2022-12-11T18:28:48.233Z,0.72
2022-12-11T18:31:15.281Z,1.04
2022-12-11T18:33:43.568Z,0.78
2022-12-11T18:36:11.771Z,1.00
2022-12-11T18:38:39.212Z,1.22
2022-12-11T18:41:08.234Z,0.51
2022-12-11T18:43:35.781Z,1.04
2022-12-11T18:46:14.525Z,1.03
2022-12-11T18:48:42.326Z,0.57
2022-12-11T18:51:12.378Z,1.15
2022-12-11T18:53:42.012Z,0.51
2022-12-11T18:56:11.221Z,1.33
2022-12-11T18:58:38.358Z,0.89
2022-12-11T19:01:25.877Z,1.23
2022-12-11T19:04:03.591Z,0.78
2022-12-11T19:06:33.325Z,1.10
2022-12-11T19:09:00.591Z,0.20
2022-12-11T19:11:29.679Z,0.68
2022-12-11T19:13:56.961Z,0.67
2022-12-11T19:16:40.617Z,0.74
2022-12-11T19:19:12.525Z,0.91
2022-12-11T19:21:39.721Z,0.24
2022-12-11T19:24:08.453Z,0.50
2022-12-11T19:26:35.771Z,0.79
2022-12-11T19:29:03.161Z,0.43
2022-12-11T19:31:31.602Z,0.77
2022-12-11T19:33:59.901Z,0.70
2022-12-11T19:36:28.016Z,0.75
2022-12-11T19:39:01.138Z,0.82
2022-12-11T19:41:28.710Z,0.68
2022-12-11T19:43:57.087Z,0.74
2022-12-11T19:46:24.943Z,0.74
2022-12-11T19:48:54.297Z,0.87
2022-12-11T19:51:29.844Z,1.18
2022-12-11T19:53:57.393Z,0.61
2022-12-11T19:56:24.320Z,0.87
2022-12-11T19:58:51.225Z,0.76
2022-12-11T20:01:19.807Z,0.80
2022-12-11T20:03:46.742Z,0.41
2022-12-11T20:06:13.904Z,0.70
2022-12-11T20:08:45.714Z,0.65
2022-12-11T20:11:17.825Z,0.74
2022-12-11T20:13:46.190Z,1.03
2022-12-11T20:16:13.756Z,0.90
2022-12-11T20:18:40.818Z,0.91
2022-12-11T20:21:10.095Z,0.57
2022-12-11T20:23:36.967Z,0.62
2022-12-11T20:26:07.551Z,-0.37
2022-12-11T20:28:34.400Z,0.16
2022-12-11T20:31:13.537Z,0.36
2022-12-11T20:33:43.626Z,0.42
2022-12-11T20:36:12.950Z,0.88
2022-12-11T20:38:40.347Z,0.61
2022-12-11T20:41:10.787Z,1.22
2022-12-11T20:43:38.008Z,0.75
2022-12-11T20:46:10.044Z,0.81
2022-12-11T20:48:37.423Z,1.26
2022-12-11T20:51:06.442Z,0.48
2022-12-11T20:53:35.098Z,0.27
2022-12-11T20:56:02.400Z,0.24
2022-12-11T20:58:29.255Z,-0.01
2022-12-11T21:00:55.977Z,0.53
2022-12-11T21:03:22.924Z,0.27
2022-12-11T21:05:49.804Z,0.37
2022-12-11T21:08:16.533Z,0.38
2022-12-11T21:10:44.841Z,0.39
2022-12-11T21:13:11.738Z,0.51
2022-12-11T21:15:39.370Z,0.21
2022-12-11T21:18:07.374Z,0.11
2022-12-11T21:20:35.052Z,-0.19
2022-12-11T21:23:02.789Z,0.07
2022-12-11T21:25:29.679Z,0.15
2022-12-11T21:27:56.523Z,-0.12
2022-12-11T21:30:23.326Z,0.47
2022-12-11T21:32:50.165Z,0.28
2022-12-11T21:35:16.852Z,0.77
2022-12-11T21:37:43.818Z,0.62
2022-12-11T21:40:11.146Z,0.38
2022-12-11T21:42:37.992Z,0.09
2022-12-11T21:47:52.053Z,0.39
2022-12-11T21:50:19.115Z,-0.05
2022-12-11T21:52:45.970Z,-0.10
2022-12-11T21:55:13.098Z,0.24
2022-12-11T21:57:40.188Z,0.38
2022-12-11T22:00:07.112Z,0.27
2022-12-11T22:02:37.557Z,0.24
2022-12-11T22:05:08.096Z,0.48
2022-12-11T22:07:34.993Z,0.33
2022-12-11T22:10:02.127Z,0.31
2022-12-11T22:12:29.708Z,0.01
2022-12-11T22:14:56.703Z,0.09
2022-12-11T22:17:24.016Z,0.13
2022-12-11T22:19:53.803Z,0.24
2022-12-11T22:22:20.692Z,0.19
2022-12-11T22:24:47.886Z,0.12
2022-12-11T22:27:19.067Z,-0.09
2022-12-11T22:29:48.925Z,0.29
2022-12-11T22:32:15.799Z,0.02
2022-12-11T22:34:42.453Z,0.25
2022-12-11T22:37:09.412Z,0.34
2022-12-11T22:39:36.271Z,0.29
2022-12-11T22:42:03.433Z,0.43
2022-12-11T22:44:30.274Z,0.27
2022-12-11T22:46:57.606Z,0.14
2022-12-11T22:49:24.495Z,0.12
2022-12-11T22:51:51.384Z,0.25
2022-12-11T22:54:18.042Z,0.40
2022-12-11T22:56:44.925Z,0.75
2022-12-11T22:59:11.836Z,0.58
2022-12-11T23:01:38.614Z,-0.05
2022-12-11T23:04:05.625Z,1.25
2022-12-11T23:06:32.635Z,0.86
2022-12-11T23:09:00.497Z,0.51
2022-12-11T23:11:30.175Z,0.33
2022-12-11T23:13:57.533Z,0.41
2022-12-11T23:16:26.053Z,0.63
2022-12-11T23:18:53.771Z,0.82
2022-12-11T23:21:21.978Z,0.24
2022-12-11T23:23:49.285Z,0.01
2022-12-11T23:26:18.849Z,0.40
2022-12-11T23:28:46.926Z,0.84
2022-12-11T23:31:14.343Z,0.47
2022-12-11T23:33:41.413Z,0.38
2022-12-11T23:36:09.218Z,0.83
2022-12-11T23:38:36.495Z,0.72
2022-12-11T23:41:04.201Z,0.18
2022-12-11T23:43:31.068Z,0.10
2022-12-11T23:45:57.928Z,0.24
2022-12-11T23:48:24.866Z,0.10
2022-12-11T23:50:52.053Z,-0.19
2022-12-11T23:53:18.976Z,0.38
2022-12-11T23:55:45.962Z,-0.26
2022-12-11T23:58:12.857Z,-0.10
